Time;durP1;ratioP1;P1;durP2;ratioP2;P2;SDS_P1;SDS_P2;PMS_P1;PMS_P2;Temp;Humidity;BMP_temperature;BMP_pressure;BME280_temperature;BME280_humidity;BME280_pressure;Samples;Min_cycle;Max_cycle;Signal;HPM_P1;HPM_P2
2023/10/08 00:01:33;;;;;;;1.85;1.15;;;;;;;;;;5067315;28;20044;-77
2023/10/08 00:04:01;;;;;;;2.10;1.20;;;;;;;;;;5067679;28;20055;-77
2023/10/08 00:06:27;;;;;;;2.78;1.20;;;;;;;;;;5069090;28;20037;-77
2023/10/08 00:08:59;;;;;;;1.20;1.00;;;;;;;;;;5091480;28;20495;-77
2023/10/08 00:11:29;;;;;;;1.20;1.10;;;;;;;;;;5090806;28;20043;-77
2023/10/08 00:13:56;;;;;;;1.80;1.23;;;;;;;;;;5077215;28;20043;-78
2023/10/08 00:16:22;;;;;;;1.40;1.30;;;;;;;;;;5073112;28;20122;-78
2023/10/08 00:18:49;;;;;;;4.53;1.50;;;;;;;;;;5069378;28;20044;-78
2023/10/08 00:21:19;;;;;;;1.52;1.40;;;;;;;;;;5070069;28;20597;-78
2023/10/08 00:23:52;;;;;;;2.42;1.40;;;;;;;;;;5093022;28;20489;-78
2023/10/08 00:26:29;;;;;;;3.00;1.50;;;;;;;;;;5101297;28;20048;-77
2023/10/08 00:28:59;;;;;;;3.38;1.50;;;;;;;;;;5069620;28;20079;-78
2023/10/08 00:31:30;;;;;;;2.03;1.58;;;;;;;;;;5074455;28;20052;-77
2023/10/08 00:33:56;;;;;;;2.75;1.50;;;;;;;;;;5095318;28;20055;-78
2023/10/08 00:36:23;;;;;;;1.23;1.13;;;;;;;;;;5071427;28;20135;-78
2023/10/08 00:38:53;;;;;;;2.33;1.40;;;;;;;;;;5070742;28;20090;-78
2023/10/08 00:41:21;;;;;;;1.27;1.00;;;;;;;;;;5080342;28;20095;-77
2023/10/08 00:43:48;;;;;;;2.50;1.30;;;;;;;;;;5080018;28;20085;-77
2023/10/08 00:46:35;;;;;;;5.35;1.30;;;;;;;;;;5073978;28;20044;-78
2023/10/08 00:51:48;;;;;;;2.78;1.40;;;;;;;;;;5091929;28;20075;-78
2023/10/08 00:54:17;;;;;;;1.98;1.40;;;;;;;;;;5079843;28;20056;-77
2023/10/08 00:56:53;;;;;;;3.95;1.40;;;;;;;;;;5082556;28;20075;-78
2023/10/08 00:59:23;;;;;;;2.50;1.10;;;;;;;;;;5087780;28;20381;-79
2023/10/08 01:01:59;;;;;;;1.52;1.20;;;;;;;;;;5095004;28;20035;-78
2023/10/08 01:04:34;;;;;;;1.90;1.20;;;;;;;;;;5071428;28;20048;-78
2023/10/08 01:07:10;;;;;;;2.30;1.40;;;;;;;;;;5082883;28;20053;-78
2023/10/08 01:09:37;;;;;;;2.78;1.30;;;;;;;;;;5073628;28;20047;-78
2023/10/08 01:12:11;;;;;;;2.25;1.30;;;;;;;;;;5086289;28;20052;-78
2023/10/08 01:14:37;;;;;;;4.32;1.40;;;;;;;;;;5070782;28;20127;-78
2023/10/08 01:17:06;;;;;;;3.35;1.40;;;;;;;;;;5071725;28;20132;-77
2023/10/08 01:19:33;;;;;;;6.10;1.48;;;;;;;;;;5067721;28;20549;-78
2023/10/08 01:22:06;;;;;;;3.15;1.23;;;;;;;;;;5073388;28;20070;-78
2023/10/08 01:24:34;;;;;;;2.15;1.10;;;;;;;;;;5064089;28;20051;-77
2023/10/08 01:27:04;;;;;;;2.90;1.30;;;;;;;;;;5074088;28;20423;-78
2023/10/08 01:29:31;;;;;;;3.17;1.30;;;;;;;;;;5102262;28;20066;-78
2023/10/08 01:31:57;;;;;;;2.35;1.30;;;;;;;;;;5069421;28;20048;-78
2023/10/08 01:34:30;;;;;;;1.45;1.33;;;;;;;;;;5074405;28;20062;-78
2023/10/08 01:37:04;;;;;;;1.45;1.30;;;;;;;;;;5082382;28;20052;-78
2023/10/08 01:39:32;;;;;;;3.00;1.23;;;;;;;;;;5083790;28;20124;-77
2023/10/08 01:41:58;;;;;;;2.60;1.30;;;;;;;;;;5067817;28;20044;-77
2023/10/08 01:44:24;;;;;;;4.28;1.40;;;;;;;;;;5071660;28;20108;-78
2023/10/08 01:46:50;;;;;;;2.22;1.40;;;;;;;;;;5069781;28;20395;-78
2023/10/08 01:49:21;;;;;;;3.25;1.30;;;;;;;;;;5093887;28;20063;-78
2023/10/08 01:51:47;;;;;;;2.35;1.40;;;;;;;;;;5074786;28;20048;-77
2023/10/08 01:54:17;;;;;;;1.40;1.30;;;;;;;;;;5070757;28;20458;-77
2023/10/08 01:56:43;;;;;;;1.88;1.15;;;;;;;;;;5083520;28;20046;-77
2023/10/08 01:59:11;;;;;;;1.50;1.38;;;;;;;;;;5079850;28;20086;-78
2023/10/08 02:01:38;;;;;;;2.45;1.10;;;;;;;;;;5064465;28;20494;-78
2023/10/08 02:04:07;;;;;;;2.65;1.30;;;;;;;;;;5067935;28;20044;-77
2023/10/08 02:06:36;;;;;;;3.55;1.40;;;;;;;;;;5092148;28;20048;-77
2023/10/08 02:09:09;;;;;;;3.60;1.50;;;;;;;;;;5071588;28;20052;-78
2023/10/08 02:11:46;;;;;;;3.03;1.20;;;;;;;;;;5073064;28;20048;-78
2023/10/08 02:14:15;;;;;;;2.95;1.30;;;;;;;;;;5071442;28;20438;-78
2023/10/08 02:16:42;;;;;;;5.50;1.70;;;;;;;;;;5091650;28;20048;-77
2023/10/08 02:19:10;;;;;;;7.18;1.73;;;;;;;;;;5063046;28;20394;-77
2023/10/08 02:21:39;;;;;;;4.05;1.90;;;;;;;;;;5091123;28;20048;-77
2023/10/08 02:24:07;;;;;;;4.47;1.67;;;;;;;;;;5085984;28;20500;-78
2023/10/08 02:26:34;;;;;;;2.30;1.17;;;;;;;;;;5053869;28;20056;-77
2023/10/08 02:29:00;;;;;;;2.63;1.45;;;;;;;;;;5071653;28;20056;-78
2023/10/08 02:31:27;;;;;;;4.07;2.13;;;;;;;;;;5085036;28;20062;-77
2023/10/08 02:33:53;;;;;;;1.90;1.30;;;;;;;;;;5071487;28;20128;-78
2023/10/08 02:36:19;;;;;;;5.38;1.90;;;;;;;;;;5081493;28;20471;-77
2023/10/08 02:38:46;;;;;;;2.65;1.27;;;;;;;;;;5088115;28;20089;-78
2023/10/08 02:41:18;;;;;;;3.50;1.60;;;;;;;;;;5077895;28;20464;-77
2023/10/08 02:43:45;;;;;;;3.65;1.77;;;;;;;;;;5080266;28;20517;-78
2023/10/08 02:46:15;;;;;;;3.15;1.55;;;;;;;;;;5073329;28;20131;-78
2023/10/08 02:48:41;;;;;;;6.32;1.77;;;;;;;;;;5074060;28;20048;-78
2023/10/08 02:51:14;;;;;;;3.33;1.67;;;;;;;;;;5103435;28;20499;-78
2023/10/08 02:53:44;;;;;;;1.77;1.50;;;;;;;;;;5064769;28;20045;-78
2023/10/08 02:56:13;;;;;;;4.13;1.63;;;;;;;;;;5086408;28;20039;-77
2023/10/08 02:58:47;;;;;;;2.40;1.50;;;;;;;;;;5077593;28;20056;-78
2023/10/08 03:01:14;;;;;;;2.53;1.33;;;;;;;;;;5077150;28;20115;-77
2023/10/08 03:03:44;;;;;;;4.25;1.50;;;;;;;;;;5069598;28;20048;-78
2023/10/08 03:06:14;;;;;;;1.90;1.30;;;;;;;;;;5072879;28;20109;-77
2023/10/08 03:08:41;;;;;;;2.13;1.38;;;;;;;;;;5091385;28;20420;-78
2023/10/08 03:11:17;;;;;;;4.22;1.90;;;;;;;;;;5069755;28;20063;-77
2023/10/08 03:13:46;;;;;;;8.98;2.50;;;;;;;;;;5075090;28;20054;-78
2023/10/08 03:16:15;;;;;;;5.88;2.33;;;;;;;;;;5093609;28;20526;-77
2023/10/08 03:18:44;;;;;;;5.72;2.00;;;;;;;;;;5066428;28;20040;-78
2023/10/08 03:21:20;;;;;;;4.00;1.85;;;;;;;;;;5074396;28;20052;-78
2023/10/08 03:23:50;;;;;;;5.32;1.80;;;;;;;;;;5074755;28;20105;-78
2023/10/08 03:26:36;;;;;;;5.57;2.15;;;;;;;;;;5058056;28;20105;-78
2023/10/08 03:29:14;;;;;;;8.40;2.05;;;;;;;;;;5082208;28;20054;-78
2023/10/08 03:34:15;;;;;;;5.85;2.30;;;;;;;;;;5092325;28;20059;-78
2023/10/08 03:36:44;;;;;;;6.13;2.28;;;;;;;;;;5073991;28;20446;-78
2023/10/08 03:39:14;;;;;;;5.93;2.03;;;;;;;;;;5068285;28;20052;-77
2023/10/08 03:41:51;;;;;;;6.60;2.15;;;;;;;;;;5078549;28;20039;-78
2023/10/08 03:44:24;;;;;;;6.38;1.80;;;;;;;;;;5075016;28;20567;-78
2023/10/08 03:46:52;;;;;;;3.38;1.85;;;;;;;;;;5065334;28;20381;-78
2023/10/08 03:51:48;;;;;;;3.38;1.83;;;;;;;;;;5083158;28;20073;-78
2023/10/08 03:56:45;;;;;;;4.10;2.03;;;;;;;;;;5078676;28;20036;-78
2023/10/08 03:59:20;;;;;;;7.43;2.08;;;;;;;;;;5080770;28;20080;-78
2023/10/08 04:01:49;;;;;;;5.65;1.75;;;;;;;;;;5079623;28;20035;-78
2023/10/08 04:04:15;;;;;;;7.18;1.98;;;;;;;;;;5071986;28;20052;-77
2023/10/08 04:06:54;;;;;;;6.95;2.03;;;;;;;;;;5093413;28;20044;-78
2023/10/08 04:14:12;;;;;;;8.45;2.03;;;;;;;;;;5070589;28;20147;-78
2023/10/08 04:16:38;;;;;;;7.30;2.10;;;;;;;;;;5074263;28;20460;-78
2023/10/08 04:19:05;;;;;;;6.10;2.15;;;;;;;;;;5090640;28;20426;-78
2023/10/08 04:21:33;;;;;;;10.30;2.00;;;;;;;;;;5070642;28;20063;-78
2023/10/08 04:24:03;;;;;;;13.98;2.33;;;;;;;;;;5104576;27;20080;-79
2023/10/08 04:26:31;;;;;;;5.70;2.30;;;;;;;;;;5070991;28;20040;-78
2023/10/08 04:28:58;;;;;;;3.83;1.88;;;;;;;;;;5076692;28;20436;-78
2023/10/08 04:31:28;;;;;;;5.20;2.00;;;;;;;;;;5080593;28;20075;-78
2023/10/08 04:34:00;;;;;;;5.97;2.10;;;;;;;;;;5092566;28;20087;-78
2023/10/08 04:36:27;;;;;;;5.93;1.85;;;;;;;;;;5086421;28;20461;-78
2023/10/08 04:38:54;;;;;;;3.88;2.05;;;;;;;;;;5080708;28;20053;-78
2023/10/08 04:41:27;;;;;;;5.18;2.30;;;;;;;;;;5101989;27;20052;-78
2023/10/08 04:43:55;;;;;;;6.35;2.20;;;;;;;;;;5088565;28;20459;-78
2023/10/08 04:49:28;;;;;;;10.65;2.70;;;;;;;;;;5069040;28;20044;-78
2023/10/08 04:51:58;;;;;;;5.10;2.60;;;;;;;;;;5074868;28;20487;-78
2023/10/08 04:54:33;;;;;;;14.10;2.45;;;;;;;;;;5078100;28;20063;-78
2023/10/08 04:57:06;;;;;;;9.32;2.45;;;;;;;;;;5076220;28;20047;-78
2023/10/08 04:59:33;;;;;;;6.43;2.67;;;;;;;;;;5086631;28;20036;-78
2023/10/08 05:05:21;;;;;;;7.45;2.60;;;;;;;;;;5071226;28;20101;-78
2023/10/08 05:10:32;;;;;;;8.43;2.38;;;;;;;;;;5074672;28;20128;-78
2023/10/08 05:13:16;;;;;;;9.60;3.03;;;;;;;;;;5088595;28;20097;-78
2023/10/08 05:16:02;;;;;;;8.90;2.83;;;;;;;;;;5101787;28;20063;-79
2023/10/08 05:21:50;;;;;;;9.65;2.47;;;;;;;;;;5076896;28;20051;-78
2023/10/08 05:24:13;;;;;;;10.80;3.03;;;;;;;;;;5088386;28;20090;-78
2023/10/08 05:26:45;;;;;;;9.93;2.78;;;;;;;;;;5094594;28;20097;-78
2023/10/08 05:29:51;;;;;;;9.32;2.90;;;;;;;;;;5080433;28;20075;-78
2023/10/08 05:32:38;;;;;;;7.95;2.58;;;;;;;;;;5073672;28;20050;-78
2023/10/08 05:35:35;;;;;;;9.73;2.72;;;;;;;;;;5080200;28;20100;-78
2023/10/08 05:38:16;;;;;;;11.27;2.78;;;;;;;;;;5094542;28;20043;-78
2023/10/08 05:48:51;;;;;;;8.15;2.67;;;;;;;;;;5070622;28;20121;-78
2023/10/08 05:51:44;;;;;;;9.00;2.65;;;;;;;;;;5089589;28;20405;-80
2023/10/08 05:54:35;;;;;;;9.05;2.70;;;;;;;;;;5091043;28;20052;-77
2023/10/08 05:59:52;;;;;;;12.13;2.90;;;;;;;;;;5055153;28;20059;-78
2023/10/08 06:13:09;;;;;;;9.35;2.30;;;;;;;;;;5070339;28;20063;-77
2023/10/08 06:18:26;;;;;;;7.28;2.75;;;;;;;;;;5074308;28;20127;-78
2023/10/08 06:21:08;;;;;;;8.82;2.60;;;;;;;;;;5098829;28;20050;-78
2023/10/08 06:23:35;;;;;;;8.80;2.90;;;;;;;;;;5077220;28;20038;-78
2023/10/08 06:28:41;;;;;;;9.82;2.90;;;;;;;;;;5073776;28;20129;-78
2023/10/08 06:31:16;;;;;;;7.53;2.33;;;;;;;;;;5071310;28;20518;-76
2023/10/08 06:33:43;;;;;;;9.43;2.70;;;;;;;;;;5069280;28;20052;-77
2023/10/08 06:36:13;;;;;;;10.80;3.10;;;;;;;;;;5074726;28;20059;-78
2023/10/08 06:38:44;;;;;;;13.40;3.17;;;;;;;;;;5073841;28;20086;-78
2023/10/08 06:43:43;;;;;;;8.60;2.40;;;;;;;;;;5075098;28;20055;-78
2023/10/08 06:46:12;;;;;;;10.13;3.08;;;;;;;;;;5068497;28;20487;-78
2023/10/08 06:48:42;;;;;;;9.30;2.60;;;;;;;;;;5083508;28;20047;-78
2023/10/08 06:51:12;;;;;;;6.75;2.60;;;;;;;;;;5083879;28;20051;-78
2023/10/08 06:53:42;;;;;;;5.47;2.38;;;;;;;;;;5073435;28;20052;-78
2023/10/08 06:56:12;;;;;;;8.50;2.47;;;;;;;;;;5072587;28;20122;-78
2023/10/08 06:58:38;;;;;;;8.38;2.30;;;;;;;;;;5076373;28;20067;-78
2023/10/08 07:01:08;;;;;;;7.20;2.38;;;;;;;;;;5077749;28;20039;-78
2023/10/08 07:03:34;;;;;;;8.18;2.70;;;;;;;;;;5065848;28;20044;-78
2023/10/08 07:06:02;;;;;;;10.43;2.80;;;;;;;;;;5075823;28;20036;-78
2023/10/08 07:08:32;;;;;;;9.10;2.47;;;;;;;;;;5080002;28;20121;-78
2023/10/08 07:11:05;;;;;;;9.38;2.70;;;;;;;;;;5073956;28;20434;-78
2023/10/08 07:13:31;;;;;;;12.75;2.55;;;;;;;;;;5071996;28;20120;-77
2023/10/08 07:16:00;;;;;;;14.20;2.88;;;;;;;;;;5076049;28;20668;-78
2023/10/08 07:18:26;;;;;;;5.97;3.15;;;;;;;;;;5093533;28;20608;-77
2023/10/08 07:21:00;;;;;;;6.75;2.70;;;;;;;;;;5072606;28;20437;-77
2023/10/08 07:23:29;;;;;;;8.95;2.85;;;;;;;;;;5076793;28;20487;-78
2023/10/08 07:26:17;;;;;;;11.55;2.97;;;;;;;;;;5073825;28;20047;-78
2023/10/08 07:28:43;;;;;;;8.40;2.67;;;;;;;;;;5073934;28;20059;-78
2023/10/08 07:31:28;;;;;;;8.00;2.85;;;;;;;;;;5068530;28;20039;-77
2023/10/08 07:34:15;;;;;;;9.15;3.15;;;;;;;;;;5079312;28;20090;-77
2023/10/08 07:36:41;;;;;;;6.82;2.60;;;;;;;;;;5107316;28;20052;-77
2023/10/08 07:39:20;;;;;;;10.68;3.00;;;;;;;;;;5071149;28;20044;-78
2023/10/08 07:41:48;;;;;;;9.55;2.70;;;;;;;;;;5069046;28;21735;-77
2023/10/08 07:44:24;;;;;;;9.85;2.47;;;;;;;;;;5071501;28;20063;-77
2023/10/08 07:46:51;;;;;;;6.93;3.10;;;;;;;;;;5064206;28;20048;-78
2023/10/08 07:49:17;;;;;;;15.40;5.55;;;;;;;;;;5061402;28;20036;-78
2023/10/08 07:51:50;;;;;;;12.38;5.38;;;;;;;;;;5087197;28;20488;-77
2023/10/08 07:54:19;;;;;;;11.15;4.47;;;;;;;;;;5075444;28;20487;-78
2023/10/08 07:56:45;;;;;;;5.53;2.53;;;;;;;;;;5069712;28;20076;-78
2023/10/08 07:59:14;;;;;;;8.30;2.75;;;;;;;;;;5070753;28;20048;-78
2023/10/08 08:01:42;;;;;;;7.75;3.00;;;;;;;;;;5069117;28;20060;-79
2023/10/08 08:04:10;;;;;;;8.40;2.78;;;;;;;;;;5066730;28;20055;-80
2023/10/08 08:06:37;;;;;;;10.90;2.85;;;;;;;;;;5088354;28;20044;-79
2023/10/08 08:09:08;;;;;;;8.32;3.28;;;;;;;;;;5089364;28;20707;-80
2023/10/08 08:11:36;;;;;;;6.78;2.58;;;;;;;;;;5068908;28;20151;-80
2023/10/08 08:14:07;;;;;;;9.05;2.88;;;;;;;;;;5067559;28;20076;-79
2023/10/08 08:16:36;;;;;;;12.98;7.65;;;;;;;;;;5089771;28;20040;-77
2023/10/08 08:19:02;;;;;;;77.97;64.90;;;;;;;;;;5089789;28;20435;-77
2023/10/08 08:21:30;;;;;;;115.95;98.30;;;;;;;;;;5088530;28;20040;-72
2023/10/08 08:24:05;;;;;;;16.13;13.18;;;;;;;;;;5069921;28;20094;-73
2023/10/08 08:26:39;;;;;;;9.10;4.55;;;;;;;;;;5088056;28;20051;-79
2023/10/08 08:29:08;;;;;;;9.60;2.80;;;;;;;;;;5066469;28;20075;-79
2023/10/08 08:31:35;;;;;;;7.97;2.75;;;;;;;;;;5066664;28;20487;-78
2023/10/08 08:34:13;;;;;;;9.07;2.40;;;;;;;;;;5071320;28;20041;-78
2023/10/08 08:36:46;;;;;;;7.55;2.35;;;;;;;;;;5088041;28;20391;-79
2023/10/08 08:39:35;;;;;;;6.03;2.72;;;;;;;;;;5084913;28;20155;-75
2023/10/08 08:42:01;;;;;;;7.53;3.22;;;;;;;;;;5072575;28;20052;-75
2023/10/08 08:44:45;;;;;;;7.20;3.72;;;;;;;;;;5091489;28;20444;-75
2023/10/08 08:47:17;;;;;;;8.57;2.47;;;;;;;;;;5087160;28;20052;-76
2023/10/08 08:49:45;;;;;;;9.10;2.85;;;;;;;;;;5067303;28;20466;-80
2023/10/08 08:52:13;;;;;;;10.00;2.70;;;;;;;;;;5073230;28;20100;-84
2023/10/08 08:54:48;;;;;;;8.70;2.70;;;;;;;;;;5065614;28;20040;-77
2023/10/08 08:57:15;;;;;;;10.15;3.20;;;;;;;;;;5065046;28;20100;-79
2023/10/08 08:59:50;;;;;;;9.10;2.58;;;;;;;;;;5081971;28;20028;-78
2023/10/08 09:02:18;;;;;;;6.50;2.47;;;;;;;;;;5062283;28;20176;-78
2023/10/08 09:04:45;;;;;;;9.63;3.30;;;;;;;;;;5063492;28;20051;-77
2023/10/08 09:07:12;;;;;;;8.88;2.40;;;;;;;;;;5062521;28;20391;-78
2023/10/08 09:09:41;;;;;;;5.00;2.60;;;;;;;;;;5077730;28;20060;-78
2023/10/08 09:12:10;;;;;;;10.93;3.90;;;;;;;;;;5063616;28;20387;-78
2023/10/08 09:14:37;;;;;;;8.73;3.10;;;;;;;;;;5061131;28;20699;-78
2023/10/08 09:17:04;;;;;;;11.38;3.58;;;;;;;;;;5079987;28;20040;-78
2023/10/08 09:19:31;;;;;;;10.25;2.97;;;;;;;;;;5061027;28;20056;-78
2023/10/08 09:22:08;;;;;;;9.75;2.70;;;;;;;;;;5082144;28;20062;-78
2023/10/08 09:24:36;;;;;;;10.23;2.65;;;;;;;;;;5062000;28;20039;-78
2023/10/08 09:27:02;;;;;;;9.00;2.63;;;;;;;;;;5063463;28;20087;-78
2023/10/08 09:29:29;;;;;;;11.25;3.33;;;;;;;;;;5064132;28;20044;-77
2023/10/08 09:31:59;;;;;;;12.18;3.40;;;;;;;;;;5063198;28;20039;-77
2023/10/08 09:34:29;;;;;;;6.85;2.35;;;;;;;;;;5060741;28;20050;-78
2023/10/08 09:37:07;;;;;;;6.78;2.45;;;;;;;;;;5064968;28;20044;-78
2023/10/08 09:39:37;;;;;;;7.05;2.45;;;;;;;;;;5090065;28;20097;-77
2023/10/08 09:42:06;;;;;;;6.47;2.30;;;;;;;;;;5072120;28;20032;-77
2023/10/08 09:44:32;;;;;;;8.30;2.55;;;;;;;;;;5068592;28;20074;-77
2023/10/08 09:47:01;;;;;;;10.88;2.83;;;;;;;;;;5069380;28;20067;-78
2023/10/08 09:49:31;;;;;;;9.20;2.42;;;;;;;;;;5087702;28;20032;-78
2023/10/08 09:51:59;;;;;;;10.45;2.70;;;;;;;;;;5082763;28;20048;-78
2023/10/08 09:54:32;;;;;;;7.20;2.60;;;;;;;;;;5068452;28;20105;-77
2023/10/08 09:56:59;;;;;;;9.95;2.55;;;;;;;;;;5070622;28;20400;-77
2023/10/08 09:59:29;;;;;;;13.43;2.92;;;;;;;;;;5094580;28;20465;-78
2023/10/08 10:01:59;;;;;;;6.22;2.40;;;;;;;;;;5070508;28;20048;-78
2023/10/08 10:04:25;;;;;;;4.88;2.25;;;;;;;;;;5084494;28;20044;-77
2023/10/08 10:06:52;;;;;;;10.65;3.17;;;;;;;;;;5065907;28;20090;-77
2023/10/08 10:09:24;;;;;;;8.35;2.60;;;;;;;;;;5062981;28;20116;-77
2023/10/08 10:11:50;;;;;;;9.75;2.58;;;;;;;;;;5085824;28;20052;-78
2023/10/08 10:14:19;;;;;;;9.80;3.08;;;;;;;;;;5064864;28;20076;-77
2023/10/08 10:16:49;;;;;;;11.20;2.83;;;;;;;;;;5086179;28;20492;-77
2023/10/08 10:19:19;;;;;;;8.23;3.25;;;;;;;;;;5068825;28;20518;-78
2023/10/08 10:21:47;;;;;;;8.35;2.85;;;;;;;;;;5072103;28;20378;-78
2023/10/08 10:24:23;;;;;;;7.95;2.80;;;;;;;;;;5085367;28;20056;-77
2023/10/08 10:26:50;;;;;;;12.70;4.30;;;;;;;;;;5065144;28;20164;-78
2023/10/08 10:29:20;;;;;;;11.30;6.43;;;;;;;;;;5096696;28;20047;-77
2023/10/08 10:31:47;;;;;;;163.57;79.95;;;;;;;;;;5081854;28;20040;-77
2023/10/08 10:34:17;;;;;;;23.83;12.25;;;;;;;;;;5062849;28;20247;-77
2023/10/08 10:36:48;;;;;;;7.70;2.65;;;;;;;;;;5063069;28;20078;-77
2023/10/08 10:39:26;;;;;;;9.55;2.65;;;;;;;;;;5064766;28;20514;-80
2023/10/08 10:41:57;;;;;;;9.38;4.10;;;;;;;;;;5064089;28;20048;-80
2023/10/08 10:44:23;;;;;;;9.50;5.03;;;;;;;;;;5083902;28;20050;-84
2023/10/08 10:50:31;;;;;;;7.70;4.17;;;;;;;;;;5061280;28;20453;-81
2023/10/08 10:52:45;;;;;;;6.97;3.60;;;;;;;;;;5082754;28;20053;-80
2023/10/08 10:57:42;;;;;;;10.15;2.85;;;;;;;;;;5064429;28;20059;-81
2023/10/08 11:02:59;;;;;;;7.75;2.95;;;;;;;;;;5095634;28;20052;-79
2023/10/08 11:05:28;;;;;;;9.35;2.95;;;;;;;;;;5083651;28;20056;-79
2023/10/08 11:08:04;;;;;;;11.77;2.92;;;;;;;;;;5072542;28;20517;-76
2023/10/08 11:10:31;;;;;;;5.70;2.25;;;;;;;;;;5071965;28;20067;-77
2023/10/08 11:13:00;;;;;;;9.02;2.70;;;;;;;;;;5090334;28;20044;-77
2023/10/08 11:15:29;;;;;;;6.63;3.10;;;;;;;;;;5088674;28;20124;-77
2023/10/08 11:17:59;;;;;;;7.93;4.80;;;;;;;;;;5071876;28;20098;-76
2023/10/08 11:20:29;;;;;;;7.70;3.10;;;;;;;;;;5068938;28;20056;-78
2023/10/08 11:22:55;;;;;;;7.97;2.78;;;;;;;;;;5071788;28;20499;-77
2023/10/08 11:25:30;;;;;;;7.55;3.10;;;;;;;;;;5088286;28;20044;-77
2023/10/08 11:28:08;;;;;;;7.53;2.55;;;;;;;;;;5102122;27;20055;-77
2023/10/08 11:30:35;;;;;;;6.45;2.40;;;;;;;;;;5103598;27;20060;-79
2023/10/08 11:33:01;;;;;;;7.85;3.10;;;;;;;;;;5071104;28;20075;-78
2023/10/08 11:35:28;;;;;;;8.75;4.38;;;;;;;;;;5067671;28;20032;-77
2023/10/08 11:38:00;;;;;;;7.47;3.30;;;;;;;;;;5069836;28;20755;-78
2023/10/08 11:40:48;;;;;;;8.90;3.67;;;;;;;;;;5063856;28;20048;-78
2023/10/08 11:43:15;;;;;;;6.03;2.10;;;;;;;;;;5103316;27;20044;-78
2023/10/08 11:45:48;;;;;;;7.68;2.60;;;;;;;;;;5072283;28;20471;-78
2023/10/08 11:48:17;;;;;;;6.30;3.03;;;;;;;;;;5089636;28;20130;-79
2023/10/08 11:50:43;;;;;;;5.70;2.83;;;;;;;;;;5071904;28;20044;-79
2023/10/08 11:53:11;;;;;;;6.10;2.60;;;;;;;;;;5072161;28;20036;-77
2023/10/08 11:55:38;;;;;;;6.88;2.78;;;;;;;;;;5079911;28;20130;-79
2023/10/08 11:58:11;;;;;;;9.07;2.30;;;;;;;;;;5073143;28;20043;-78
2023/10/08 12:00:43;;;;;;;5.25;2.58;;;;;;;;;;5073575;28;20101;-79
2023/10/08 12:03:11;;;;;;;6.28;2.45;;;;;;;;;;5073977;28;20487;-78
2023/10/08 12:05:38;;;;;;;8.15;2.63;;;;;;;;;;5059566;28;20070;-79
2023/10/08 12:08:08;;;;;;;7.53;2.60;;;;;;;;;;5100263;27;20052;-77
2023/10/08 12:10:34;;;;;;;8.45;3.60;;;;;;;;;;5083897;28;20127;-77
2023/10/08 12:13:00;;;;;;;5.97;2.47;;;;;;;;;;5088425;28;20036;-77
2023/10/08 12:15:34;;;;;;;8.50;2.70;;;;;;;;;;5071249;28;20793;-77
2023/10/08 12:18:15;;;;;;;11.27;4.30;;;;;;;;;;5070874;28;20060;-77
2023/10/08 12:20:45;;;;;;;8.30;2.60;;;;;;;;;;5093207;28;20819;-78
2023/10/08 15:49:19;;;;;;;8.02;2.65;;;;;;;;;;5084962;27;20414;-79
2023/10/08 15:51:46;;;;;;;5.68;3.03;;;;;;;;;;5067809;28;20051;-80
2023/10/08 15:54:12;;;;;;;9.05;3.70;;;;;;;;;;5062884;28;20179;-79
2023/10/08 15:56:38;;;;;;;8.73;3.15;;;;;;;;;;5061282;28;20468;-79
2023/10/08 15:59:04;;;;;;;6.45;2.92;;;;;;;;;;5066202;28;20052;-80
2023/10/08 16:01:30;;;;;;;7.15;2.60;;;;;;;;;;5068164;28;20044;-79
2023/10/08 16:03:56;;;;;;;7.63;2.65;;;;;;;;;;5068908;28;20040;-79
2023/10/08 16:06:22;;;;;;;9.95;3.08;;;;;;;;;;5078413;28;20095;-79
2023/10/08 16:08:48;;;;;;;5.55;2.60;;;;;;;;;;5074956;28;20434;-79
2023/10/08 16:11:15;;;;;;;7.80;2.70;;;;;;;;;;5068649;28;20426;-79
2023/10/08 16:13:42;;;;;;;12.40;2.80;;;;;;;;;;5066451;28;20052;-79
2023/10/08 16:16:09;;;;;;;5.85;2.70;;;;;;;;;;5066013;28;20053;-80
2023/10/08 16:18:35;;;;;;;6.22;2.75;;;;;;;;;;5056535;28;20047;-80
2023/10/08 16:21:02;;;;;;;7.18;3.42;;;;;;;;;;5060136;28;20094;-80
2023/10/08 16:23:29;;;;;;;9.82;2.88;;;;;;;;;;5057619;28;20094;-79
2023/10/08 16:25:55;;;;;;;5.55;2.80;;;;;;;;;;5064487;28;20492;-80
2023/10/08 16:28:21;;;;;;;9.20;3.05;;;;;;;;;;5071943;28;20543;-80
2023/10/08 16:30:53;;;;;;;11.60;3.58;;;;;;;;;;5065819;28;20049;-79
2023/10/08 16:33:22;;;;;;;8.95;3.22;;;;;;;;;;5066387;28;20411;-80
2023/10/08 16:35:50;;;;;;;8.60;3.70;;;;;;;;;;5065152;28;20427;-80
2023/10/08 16:38:16;;;;;;;7.85;3.45;;;;;;;;;;5066748;28;20452;-80
2023/10/08 16:40:44;;;;;;;7.53;3.45;;;;;;;;;;5068283;28;20048;-80
2023/10/08 16:43:14;;;;;;;10.38;3.25;;;;;;;;;;5065250;28;20127;-79
2023/10/08 16:45:40;;;;;;;7.38;3.10;;;;;;;;;;5064952;28;20056;-79
2023/10/08 16:48:07;;;;;;;7.97;3.20;;;;;;;;;;5064020;28;20064;-80
2023/10/08 16:50:33;;;;;;;10.80;3.33;;;;;;;;;;5068244;28;20040;-79
2023/10/08 16:53:00;;;;;;;6.00;2.88;;;;;;;;;;5061966;28;20055;-81
2023/10/08 16:55:26;;;;;;;8.15;3.90;;;;;;;;;;5095916;28;20131;-80
2023/10/08 16:57:52;;;;;;;6.55;2.70;;;;;;;;;;5068314;28;20162;-82
2023/10/08 17:00:19;;;;;;;9.75;2.90;;;;;;;;;;5050785;28;20052;-82
2023/10/08 17:02:45;;;;;;;7.70;3.20;;;;;;;;;;5047244;28;20052;-82
2023/10/08 17:05:15;;;;;;;10.13;3.42;;;;;;;;;;5040931;28;20183;-81
2023/10/08 17:07:41;;;;;;;5.85;3.20;;;;;;;;;;5044674;28;20504;-82
2023/10/08 17:10:08;;;;;;;7.43;3.30;;;;;;;;;;5046199;28;20052;-83
2023/10/08 17:12:34;;;;;;;7.13;2.90;;;;;;;;;;5045423;28;20079;-82
2023/10/08 17:15:00;;;;;;;8.95;3.58;;;;;;;;;;5042303;28;20049;-82
2023/10/08 17:17:26;;;;;;;13.27;3.80;;;;;;;;;;5045758;28;20041;-82
2023/10/08 17:19:53;;;;;;;6.25;3.10;;;;;;;;;;5047629;28;20046;-82
2023/10/08 17:22:19;;;;;;;6.03;3.13;;;;;;;;;;5045670;28;20045;-82
2023/10/08 17:24:45;;;;;;;7.53;3.47;;;;;;;;;;5048717;28;20045;-82
2023/10/08 17:27:14;;;;;;;5.15;2.83;;;;;;;;;;5047713;28;20048;-82
2023/10/08 17:29:41;;;;;;;6.97;3.97;;;;;;;;;;5045038;28;20433;-82
2023/10/08 17:32:07;;;;;;;11.48;3.90;;;;;;;;;;5045932;28;20500;-82
2023/10/08 17:34:33;;;;;;;10.63;2.83;;;;;;;;;;5049730;28;20045;-82
2023/10/08 17:36:59;;;;;;;6.18;2.90;;;;;;;;;;5045272;28;20037;-82
2023/10/08 17:39:27;;;;;;;7.63;3.03;;;;;;;;;;5045845;28;20041;-82
2023/10/08 17:41:53;;;;;;;5.40;2.90;;;;;;;;;;5045478;28;20116;-82
2023/10/08 17:44:22;;;;;;;11.73;3.08;;;;;;;;;;5043385;28;20051;-82
2023/10/08 17:46:48;;;;;;;6.05;3.08;;;;;;;;;;5047806;28;20107;-81
2023/10/08 17:49:14;;;;;;;7.30;3.17;;;;;;;;;;5042487;28;20053;-82
2023/10/08 17:51:40;;;;;;;10.90;3.90;;;;;;;;;;5048664;28;20041;-82
2023/10/08 17:54:10;;;;;;;7.15;2.97;;;;;;;;;;5042999;28;20128;-81
2023/10/08 17:56:37;;;;;;;8.52;3.25;;;;;;;;;;5052557;28;20519;-81
2023/10/08 17:59:04;;;;;;;5.53;3.15;;;;;;;;;;5047693;28;20435;-82
2023/10/08 18:01:33;;;;;;;7.28;2.67;;;;;;;;;;5045213;28;20041;-82
2023/10/08 18:03:59;;;;;;;8.07;3.10;;;;;;;;;;5044168;28;20029;-82
2023/10/08 18:06:25;;;;;;;8.70;3.50;;;;;;;;;;5044918;28;20496;-81
2023/10/08 18:08:52;;;;;;;8.65;3.65;;;;;;;;;;5047592;28;20445;-81
2023/10/08 18:11:22;;;;;;;9.70;3.47;;;;;;;;;;5042859;28;20552;-81
2023/10/08 18:13:50;;;;;;;13.15;3.33;;;;;;;;;;5047205;28;20122;-81
2023/10/08 18:16:17;;;;;;;7.25;2.80;;;;;;;;;;5039848;28;20374;-82
2023/10/08 18:18:43;;;;;;;5.55;2.90;;;;;;;;;;5043648;28;20154;-81
2023/10/08 18:21:09;;;;;;;7.57;3.22;;;;;;;;;;5048713;28;20048;-81
2023/10/08 18:23:40;;;;;;;9.50;3.50;;;;;;;;;;5043776;28;20059;-81
2023/10/08 18:26:10;;;;;;;7.55;3.60;;;;;;;;;;5045626;28;20510;-81
2023/10/08 18:28:37;;;;;;;7.30;3.17;;;;;;;;;;5047147;28;20057;-81
2023/10/08 18:31:06;;;;;;;7.78;3.15;;;;;;;;;;5045740;28;20052;-81
2023/10/08 18:33:32;;;;;;;9.02;3.58;;;;;;;;;;5043236;28;20385;-81
2023/10/08 18:36:06;;;;;;;7.88;3.05;;;;;;;;;;5047817;28;20059;-80
2023/10/08 18:38:31;;;;;;;;;;;;;;;;;;5047054;28;20051;-81
2023/10/08 18:40:57;;;;;;;7.20;3.70;;;;;;;;;;5047495;28;20011;-82
2023/10/08 18:43:24;;;;;;;6.93;3.42;;;;;;;;;;5043963;28;20049;-82
2023/10/08 18:45:51;;;;;;;5.88;3.47;;;;;;;;;;5047794;28;20037;-82
2023/10/08 18:48:17;;;;;;;7.63;3.67;;;;;;;;;;5048202;28;20143;-84
2023/10/08 18:50:44;;;;;;;10.77;3.83;;;;;;;;;;5040863;28;20141;-82
2023/10/08 18:53:10;;;;;;;10.73;3.85;;;;;;;;;;5041416;28;20443;-81
2023/10/08 18:55:36;;;;;;;8.75;3.70;;;;;;;;;;5048078;28;20045;-81
2023/10/08 18:58:04;;;;;;;5.82;3.38;;;;;;;;;;5047897;28;20536;-81
2023/10/08 19:00:32;;;;;;;5.75;3.30;;;;;;;;;;5043537;28;20095;-81
2023/10/08 19:02:58;;;;;;;5.90;3.60;;;;;;;;;;5045204;28;20049;-81
2023/10/08 19:05:25;;;;;;;8.10;3.67;;;;;;;;;;5050452;28;22013;-81
2023/10/08 19:07:53;;;;;;;10.52;3.30;;;;;;;;;;5046104;28;20057;-81
2023/10/08 19:10:20;;;;;;;8.73;3.55;;;;;;;;;;5043942;28;20052;-82
2023/10/08 19:12:46;;;;;;;8.10;3.30;;;;;;;;;;5046506;28;20051;-81
2023/10/08 19:15:16;;;;;;;8.18;3.63;;;;;;;;;;5045583;28;20485;-81
2023/10/08 19:17:47;;;;;;;6.50;3.55;;;;;;;;;;5050978;28;20080;-82
2023/10/08 19:20:14;;;;;;;7.45;3.38;;;;;;;;;;5043612;28;20090;-81
2023/10/08 19:22:40;;;;;;;8.23;3.80;;;;;;;;;;5047826;28;20052;-81
2023/10/08 19:25:09;;;;;;;6.45;3.95;;;;;;;;;;5046784;28;20484;-82
2023/10/08 19:27:36;;;;;;;6.72;3.60;;;;;;;;;;5047655;28;20044;-83